Aérodrome :
LOGIN :

S'inscrire | Disclaimer

   EN    FR    IT 

 










Légende :    VFR   VFR Marginal   IFR   IFR Intensif   IFR Très Intensif
Visi : 
Plafond : 
>= 8 km
>= 3000ft
5 à 8 km
1000 à 3000 ft
1500m à 5 km
500 à 1000 ft
800 à 1500m
200 à 500 ft
< 800m
< 200 ft
Symboles :   Orages  Brouillard  Fortes neiges  Fortes précipitations  Vent > 20 kt
SIGMETs :   Divers  Orages  Givrage  Turbulence  Onde Orograph.  Cendres Volcan.






- Altitude de l'aérodrome : 362 ft
- Code IATA : WAW


EPWA - Warsaw Okecie

DERNIER METAR :
  • 241200Z 30012KT 260V320 9999 -SHRA FEW009 BKN016CB 05/04 Q1013 TEMPO BKN012

METARs EXPIRÉS :
  • 241130Z 28015KT 9999 SCT014 BKN033 06/03 Q1013 TEMPO BKN014
  • 241100Z 28014KT 9999 SCT014 BKN046 06/03 Q1013 TEMPO BKN014
  • 241030Z 29016KT 9999 SCT015 BKN046 05/03 Q1013 NOSIG
  • 241000Z 29014KT 9999 SCT012 BKN048 05/03 Q1012 TEMPO BKN012
  • 240930Z 29015KT 9999 SCT012 BKN023 05/03 Q1012 TEMPO BKN012

TAF TAF EPWA
Valide du 24 à 12h jusqu'au 25 à 12h UTC


241130Z 2412/2512 28014KT 9999 BKN020
TEMPO 2412/2416 29015G26KT -SHRA -SHGS BKN014CB
TEMPO 2414/2418 SCT020TCU
BECMG 2416/2418 24007KT
BECMG 2423/2502 18008KT -RA BKN014
TEMPO 2501/2509 2500 RA RASN BR BKN004 OVC008
BECMG 2506/2508 26010KT
PROB40
TEMPO 2509/2512 27016G27KT SHRA SCT012TCU BKN016



MET'MAP, la Météo Aéronautique d'un coup d'oeil ! - Copyright ORBIFLY Décembre 2007 - Disclaimer

ORBIFLY MET'MAP TEAM :

Programmation & Développement : Alexandra Zaïnal
Sur une idée originale de : Baudouin d'Aumeries
Assistance à la programmation : Marc-Olivier Méhu
Soutien technique & logistique : Manuel Goepfert

Contact : metmap@orbifly.com




SOURCES & CREDITS :

   NOAA